createdAt,value
2023-04-17T00:01:12.300Z,102403.63
2023-04-17T00:03:39.085Z,102395.75
2023-04-17T00:06:06.367Z,102406.22
2023-04-17T00:08:33.844Z,102399.25
2023-04-17T00:11:07.221Z,102403.59
2023-04-17T00:13:35.233Z,102408.81
2023-04-17T00:16:01.683Z,102409.69
2023-04-17T00:18:28.093Z,102409.69
2023-04-17T00:20:54.596Z,102408.81
2023-04-17T00:23:21.013Z,102415.75
2023-04-17T00:25:47.461Z,102406.16
2023-04-17T00:28:13.835Z,102406.16
2023-04-17T00:30:40.407Z,102407.88
2023-04-17T00:33:07.032Z,102410.47
2023-04-17T00:35:33.770Z,102406.16
2023-04-17T00:38:00.183Z,102405.25
2023-04-17T00:40:27.561Z,102407.00
2023-04-17T00:43:00.161Z,102407.88
2023-04-17T00:45:27.785Z,102409.63
2023-04-17T00:47:56.986Z,102404.38
2023-04-17T00:50:23.661Z,102407.00
2023-04-17T00:52:50.924Z,102407.84
2023-04-17T00:55:17.855Z,102410.47
2023-04-17T00:57:45.742Z,102409.59
2023-04-17T01:00:12.715Z,102406.13
2023-04-17T01:02:39.641Z,102405.22
2023-04-17T01:05:06.331Z,102401.72
2023-04-17T01:07:32.710Z,102396.50
2023-04-17T01:09:59.569Z,102400.00
2023-04-17T01:12:26.101Z,102403.47
2023-04-17T01:14:54.168Z,102401.72
2023-04-17T01:17:21.701Z,102404.34
2023-04-17T01:19:49.268Z,102405.22
2023-04-17T01:22:20.599Z,102404.34
2023-04-17T01:24:49.900Z,102400.00
2023-04-17T01:27:16.454Z,102409.53
2023-04-17T01:29:44.763Z,102406.94
2023-04-17T01:32:11.338Z,102412.16
2023-04-17T01:34:37.817Z,102413.88
2023-04-17T01:37:04.634Z,102419.13
2023-04-17T01:39:31.277Z,102414.75
2023-04-17T01:41:57.853Z,102417.34
2023-04-17T01:44:24.320Z,102421.69
2023-04-17T01:46:51.159Z,102416.47
2023-04-17T01:49:17.570Z,102413.00
2023-04-17T01:51:44.000Z,102416.47
2023-04-17T01:54:10.418Z,102423.44
2023-04-17T01:56:36.929Z,102411.25
2023-04-17T01:59:03.505Z,102419.09
2023-04-17T02:01:30.963Z,102422.56
2023-04-17T02:03:57.518Z,102419.94
2023-04-17T02:06:24.057Z,102426.91
2023-04-17T02:08:50.788Z,102423.44
2023-04-17T02:11:17.263Z,102433.88
2023-04-17T02:13:43.637Z,102426.00
2023-04-17T02:16:12.310Z,102426.00
2023-04-17T02:18:40.861Z,102434.72
2023-04-17T02:21:07.244Z,102432.06
2023-04-17T02:23:35.340Z,102425.09
2023-04-17T02:26:03.795Z,102430.31
2023-04-17T02:28:30.318Z,102424.25
2023-04-17T02:30:57.012Z,102427.72
2023-04-17T02:33:23.537Z,102434.66
2023-04-17T02:35:50.135Z,102431.19
2023-04-17T02:38:21.526Z,102430.31
2023-04-17T02:40:47.911Z,102428.56
2023-04-17T02:43:14.380Z,102432.94
2023-04-17T02:45:40.891Z,102435.50
2023-04-17T02:48:07.345Z,102430.28
2023-04-17T02:50:33.956Z,102432.00
2023-04-17T02:53:08.862Z,102437.22
2023-04-17T02:55:35.897Z,102431.16
2023-04-17T02:58:05.842Z,102433.75
2023-04-17T03:00:32.488Z,102432.00
2023-04-17T03:02:59.276Z,102433.75
2023-04-17T03:05:25.888Z,102435.47
2023-04-17T03:07:53.976Z,102427.63
2023-04-17T03:10:20.365Z,102422.41
2023-04-17T03:12:46.857Z,102424.16
2023-04-17T03:15:13.477Z,102429.38
2023-04-17T03:17:39.967Z,102437.19
2023-04-17T03:20:07.980Z,102432.84
2023-04-17T03:22:34.816Z,102432.84
2023-04-17T03:25:01.643Z,102432.84
2023-04-17T03:27:35.261Z,102431.09
2023-04-17T03:30:03.047Z,102444.16
2023-04-17T03:32:30.261Z,102438.97
2023-04-17T03:34:56.649Z,102438.97
2023-04-17T03:37:23.068Z,102445.09
2023-04-17T03:39:49.490Z,102445.06
2023-04-17T03:42:15.903Z,102437.22
2023-04-17T03:44:42.405Z,102441.63
2023-04-17T03:47:11.138Z,102442.50
2023-04-17T03:49:37.600Z,102444.28
2023-04-17T03:52:04.837Z,102445.16
2023-04-17T03:54:35.269Z,102449.50
2023-04-17T03:57:03.961Z,102446.84
2023-04-17T03:59:31.646Z,102451.19
2023-04-17T04:01:58.421Z,102454.69
2023-04-17T04:04:26.903Z,102454.69
2023-04-17T04:07:03.659Z,102459.03
2023-04-17T04:09:30.327Z,102460.75
2023-04-17T04:11:58.219Z,102463.38
2023-04-17T04:14:25.316Z,102463.38
2023-04-17T04:16:52.772Z,102464.25
2023-04-17T04:19:19.789Z,102467.72
2023-04-17T04:21:46.854Z,102471.22
2023-04-17T04:24:14.313Z,102470.38
2023-04-17T04:26:42.407Z,102474.72
2023-04-17T04:29:09.530Z,102475.59
2023-04-17T04:31:46.618Z,102473.00
2023-04-17T04:34:13.377Z,102480.81
2023-04-17T04:36:49.745Z,102478.22
2023-04-17T04:39:27.490Z,102479.94
2023-04-17T04:41:53.893Z,102486.00
2023-04-17T04:44:23.514Z,102481.66
2023-04-17T04:46:55.460Z,102488.59
2023-04-17T04:49:22.184Z,102480.78
2023-04-17T04:51:48.757Z,102479.91
2023-04-17T04:54:15.743Z,102485.13
2023-04-17T04:56:50.818Z,102481.66
2023-04-17T04:59:17.562Z,102487.72
2023-04-17T05:01:52.718Z,102484.25
2023-04-17T05:04:21.796Z,102485.13
2023-04-17T05:06:51.722Z,102490.34
2023-04-17T05:09:18.519Z,102499.09
2023-04-17T05:11:46.215Z,102501.69
2023-04-17T05:14:12.615Z,102507.78
2023-04-17T05:16:41.201Z,102508.72
2023-04-17T05:19:07.655Z,102507.88
2023-04-17T05:21:49.706Z,102516.59
2023-04-17T05:24:18.279Z,102513.97
2023-04-17T05:26:44.675Z,102518.31
2023-04-17T05:29:11.480Z,102512.28
2023-04-17T05:31:38.056Z,102513.19
2023-04-17T05:34:12.674Z,102514.09
2023-04-17T05:36:39.140Z,102519.31
2023-04-17T05:39:05.548Z,102521.06
2023-04-17T05:41:32.077Z,102519.31
2023-04-17T05:43:58.529Z,102519.34
2023-04-17T05:46:25.244Z,102525.50
2023-04-17T05:48:51.722Z,102520.28
2023-04-17T05:51:18.174Z,102522.03
2023-04-17T05:53:44.829Z,102524.63
2023-04-17T05:56:11.468Z,102522.06
2023-04-17T05:58:38.367Z,102523.78
2023-04-17T06:01:06.114Z,102525.53
2023-04-17T06:03:34.113Z,102526.44
2023-04-17T06:06:11.401Z,102529.91
2023-04-17T06:08:37.788Z,102526.44
2023-04-17T06:11:04.881Z,102533.44
2023-04-17T06:13:32.046Z,102536.03
2023-04-17T06:15:58.800Z,102543.00
2023-04-17T06:18:25.271Z,102540.44
2023-04-17T06:20:51.686Z,102543.03
2023-04-17T06:23:18.080Z,102544.81
2023-04-17T06:25:44.526Z,102543.06
2023-04-17T06:28:19.336Z,102540.44
2023-04-17T06:30:49.499Z,102543.91
2023-04-17T06:33:16.130Z,102546.56
2023-04-17T06:35:42.660Z,102543.94
2023-04-17T06:38:16.710Z,102537.84
2023-04-17T06:40:43.855Z,102546.56
2023-04-17T06:43:11.213Z,102547.44
2023-04-17T06:45:42.166Z,102546.56
2023-04-17T06:48:09.087Z,102552.69
2023-04-17T06:50:35.891Z,102551.81
2023-04-17T06:53:02.345Z,102550.06
2023-04-17T06:55:28.850Z,102558.78
2023-04-17T06:57:55.250Z,102563.09
2023-04-17T07:00:22.073Z,102555.22
2023-04-17T07:02:48.652Z,102565.69
2023-04-17T07:05:15.082Z,102569.16
2023-04-17T07:07:41.487Z,102574.41
2023-04-17T07:10:08.094Z,102567.44
2023-04-17T07:12:34.485Z,102572.66
2023-04-17T07:15:00.914Z,102576.16
2023-04-17T07:17:28.005Z,102576.16
2023-04-17T07:19:54.505Z,102571.75
2023-04-17T07:22:21.527Z,102573.50
2023-04-17T07:24:48.027Z,102582.25
2023-04-17T07:27:14.415Z,102580.50
2023-04-17T07:29:40.846Z,102579.63
2023-04-17T07:32:07.674Z,102577.88
2023-04-17T07:34:34.348Z,102584.88
2023-04-17T07:37:01.204Z,102584.91
2023-04-17T07:39:30.484Z,102584.03
2023-04-17T07:41:57.037Z,102587.50
2023-04-17T07:44:23.577Z,102584.03
2023-04-17T07:46:50.108Z,102597.13
2023-04-17T07:49:16.663Z,102588.41
2023-04-17T07:51:43.230Z,102591.91
2023-04-17T07:54:09.634Z,102589.34
2023-04-17T07:56:36.534Z,102596.31
2023-04-17T07:59:03.470Z,102595.44
2023-04-17T08:01:29.837Z,102595.47
2023-04-17T08:03:56.356Z,102590.22
2023-04-17T08:06:23.123Z,102586.72
2023-04-17T08:08:49.569Z,102591.09
2023-04-17T08:11:16.184Z,102585.00
2023-04-17T08:13:42.565Z,102581.50
2023-04-17T08:16:09.204Z,102584.09
2023-04-17T08:18:37.463Z,102578.88
2023-04-17T08:21:04.443Z,102581.47
2023-04-17T08:23:30.972Z,102585.84
2023-04-17T08:25:57.499Z,102587.59
2023-04-17T08:28:24.631Z,102584.94
2023-04-17T08:30:51.305Z,102588.47
2023-04-17T08:33:18.360Z,102582.38
2023-04-17T08:35:44.827Z,102586.72
2023-04-17T08:38:13.997Z,102586.69
2023-04-17T08:40:42.912Z,102590.19
2023-04-17T08:43:16.725Z,102590.22
2023-04-17T08:45:55.279Z,102577.09
2023-04-17T08:48:23.759Z,102583.19
2023-04-17T08:50:52.191Z,102577.94
2023-04-17T08:53:19.454Z,102584.94
2023-04-17T08:55:47.344Z,102589.28
2023-04-17T08:58:14.687Z,102582.31
2023-04-17T09:00:43.225Z,102583.16
2023-04-17T09:03:12.942Z,102587.50
2023-04-17T09:05:46.524Z,102587.50
2023-04-17T09:08:13.080Z,102594.47
2023-04-17T09:10:45.600Z,102588.34
2023-04-17T09:13:14.634Z,102586.53
2023-04-17T09:15:42.488Z,102590.91
2023-04-17T09:18:30.955Z,102592.59
2023-04-17T09:20:59.779Z,102587.34
2023-04-17T09:23:31.712Z,102592.56
2023-04-17T09:26:08.535Z,102594.28
2023-04-17T09:28:39.762Z,102587.22
2023-04-17T09:31:28.765Z,102591.50
2023-04-17T09:34:00.274Z,102592.38
2023-04-17T09:36:30.318Z,102594.06
2023-04-17T09:38:57.545Z,102590.50
2023-04-17T09:41:31.585Z,102597.41
2023-04-17T09:44:05.440Z,102596.50
2023-04-17T09:46:38.927Z,102585.06
2023-04-17T09:49:09.877Z,102588.47
2023-04-17T09:51:36.812Z,102586.56
2023-04-17T09:54:07.269Z,102587.19
2023-04-17T09:56:35.227Z,102582.56
2023-04-17T09:59:05.998Z,102590.28
2023-04-17T10:01:33.937Z,102597.19
2023-04-17T10:04:01.846Z,102589.81
2023-04-17T10:06:34.430Z,102591.97
2023-04-17T10:09:02.361Z,102593.13
2023-04-17T10:11:35.552Z,102591.94
2023-04-17T10:14:29.971Z,102596.91
2023-04-17T10:16:56.611Z,102589.84
2023-04-17T10:19:31.129Z,102595.88
2023-04-17T10:22:21.044Z,102590.66
2023-04-17T10:24:51.670Z,102586.97
2023-04-17T10:27:27.086Z,102591.59
2023-04-17T10:29:54.134Z,102588.03
2023-04-17T10:32:21.556Z,102588.31
2023-04-17T10:34:48.108Z,102589.53
2023-04-17T10:37:17.102Z,102576.69
2023-04-17T10:40:00.547Z,102577.16
2023-04-17T10:42:30.100Z,102580.09
2023-04-17T10:45:05.808Z,102575.38
2023-04-17T10:47:34.269Z,102575.50
2023-04-17T10:50:09.811Z,102571.94
2023-04-17T10:52:41.973Z,102558.75
2023-04-17T10:55:22.901Z,102567.63
2023-04-17T10:58:04.716Z,102559.06
2023-04-17T11:00:39.478Z,102551.53
2023-04-17T11:03:06.798Z,102558.19
2023-04-17T11:05:35.564Z,102558.31
2023-04-17T11:08:01.965Z,102555.41
2023-04-17T11:10:28.505Z,102559.69
2023-04-17T11:12:56.636Z,102561.22
2023-04-17T11:15:31.714Z,102561.03
2023-04-17T11:17:59.165Z,102555.97
2023-04-17T11:20:28.045Z,102566.69
2023-04-17T11:22:54.470Z,102558.13
2023-04-17T11:25:26.581Z,102561.19
2023-04-17T11:28:01.739Z,102554.25
2023-04-17T11:30:36.667Z,102555.41
2023-04-17T11:33:05.211Z,102558.00
2023-04-17T11:35:38.255Z,102566.72
2023-04-17T11:38:20.874Z,102557.25
2023-04-17T11:40:59.038Z,102556.06
2023-04-17T11:43:26.722Z,102558.75
2023-04-17T11:45:56.157Z,102561.25
2023-04-17T11:48:24.667Z,102571.19
2023-04-17T11:50:55.708Z,102574.56
2023-04-17T11:53:22.285Z,102561.09
2023-04-17T11:55:49.879Z,102569.31
2023-04-17T11:58:16.263Z,102575.56
2023-04-17T12:00:43.425Z,102574.50
2023-04-17T12:03:31.557Z,102568.63
2023-04-17T12:06:03.327Z,102577.47
2023-04-17T12:08:31.133Z,102573.78
2023-04-17T12:10:58.221Z,102573.34
2023-04-17T12:13:24.897Z,102582.25
2023-04-17T12:15:51.358Z,102584.25
2023-04-17T12:18:17.758Z,102593.56
2023-04-17T12:20:44.135Z,102600.56
2023-04-17T12:23:10.538Z,102602.72
2023-04-17T12:25:36.913Z,102605.19
2023-04-17T12:28:04.927Z,102601.97
2023-04-17T12:30:31.962Z,102601.06
2023-04-17T12:32:58.446Z,102595.44
2023-04-17T12:35:25.072Z,102597.09
2023-04-17T12:37:51.459Z,102591.44
2023-04-17T12:40:21.379Z,102586.97
2023-04-17T12:42:49.933Z,102597.78
2023-04-17T12:45:17.523Z,102594.78
2023-04-17T12:47:44.334Z,102601.75
2023-04-17T12:50:14.490Z,102599.50
2023-04-17T12:52:41.406Z,102601.34
2023-04-17T12:55:08.910Z,102593.63
2023-04-17T12:57:36.552Z,102600.78
2023-04-17T13:00:05.972Z,102596.44
2023-04-17T13:02:32.636Z,102599.34
2023-04-17T13:04:59.154Z,102590.25
2023-04-17T13:07:25.583Z,102604.44
2023-04-17T13:09:52.212Z,102603.81
2023-04-17T13:12:18.606Z,102607.78
2023-04-17T13:14:45.298Z,102608.81
2023-04-17T13:17:11.781Z,102603.97
2023-04-17T13:19:39.907Z,102599.28
2023-04-17T13:22:06.954Z,102620.56
2023-04-17T13:24:34.860Z,102604.31
2023-04-17T13:27:01.527Z,102603.63
2023-04-17T13:29:27.898Z,102600.06
2023-04-17T13:31:54.440Z,102608.13
2023-04-17T13:34:20.915Z,102595.25
2023-04-17T13:36:47.469Z,102596.63
2023-04-17T13:39:14.965Z,102592.25
2023-04-17T13:41:41.725Z,102600.50
2023-04-17T13:44:08.198Z,102600.56
2023-04-17T13:46:35.255Z,102604.31
2023-04-17T13:49:01.735Z,102605.41
2023-04-17T13:51:28.412Z,102601.25
2023-04-17T13:53:58.608Z,102598.03
2023-04-17T13:56:26.763Z,102603.78
2023-04-17T13:58:54.388Z,102597.44
2023-04-17T14:01:21.138Z,102596.47
2023-04-17T14:03:47.769Z,102597.53
2023-04-17T14:06:14.745Z,102601.75
2023-04-17T14:08:42.889Z,102604.72
2023-04-17T14:11:10.999Z,102602.63
2023-04-17T14:13:37.494Z,102613.22
2023-04-17T14:16:04.064Z,102608.84
2023-04-17T14:18:30.556Z,102608.00
2023-04-17T14:20:56.928Z,102603.59
2023-04-17T14:23:23.283Z,102623.06
2023-04-17T14:25:49.665Z,102614.59
2023-04-17T14:28:16.570Z,102608.59
2023-04-17T14:30:42.960Z,102606.22
2023-04-17T14:33:09.345Z,102617.22
2023-04-17T14:35:35.737Z,102614.53
2023-04-17T14:38:04.875Z,102616.69
2023-04-17T14:40:31.354Z,102614.22
2023-04-17T14:42:57.771Z,102615.09
2023-04-17T14:45:24.395Z,102609.78
2023-04-17T14:47:52.854Z,102618.31
2023-04-17T14:50:19.366Z,102605.06
2023-04-17T14:52:45.836Z,102615.09
2023-04-17T14:55:12.501Z,102612.38
2023-04-17T14:57:39.196Z,102616.22
2023-04-17T15:00:07.741Z,102622.03
2023-04-17T15:02:38.434Z,102630.09
2023-04-17T15:05:06.617Z,102623.06
2023-04-17T15:07:33.013Z,102627.69
2023-04-17T15:09:59.436Z,102626.81
2023-04-17T15:12:26.032Z,102625.75
2023-04-17T15:14:52.528Z,102621.22
2023-04-17T15:17:18.978Z,102624.88
2023-04-17T15:19:45.387Z,102631.44
2023-04-17T15:22:11.798Z,102623.56
2023-04-17T15:24:38.199Z,102635.50
2023-04-17T15:27:04.594Z,102626.84
2023-04-17T15:29:30.950Z,102633.03
2023-04-17T15:31:57.433Z,102633.69
2023-04-17T15:34:24.680Z,102641.44
2023-04-17T15:36:51.102Z,102642.53
2023-04-17T15:39:17.549Z,102642.94
2023-04-17T15:41:44.043Z,102648.22
2023-04-17T15:44:10.429Z,102642.91
2023-04-17T15:46:37.015Z,102640.19
2023-04-17T15:49:08.903Z,102648.09
2023-04-17T15:51:36.036Z,102646.25
2023-04-17T15:54:02.458Z,102652.34
2023-04-17T15:56:28.880Z,102658.84
2023-04-17T15:58:55.333Z,102659.75
2023-04-17T16:01:21.775Z,102664.03
2023-04-17T16:03:48.368Z,102655.19
2023-04-17T16:06:14.929Z,102660.72
2023-04-17T16:08:41.332Z,102660.03
2023-04-17T16:11:07.749Z,102667.97
2023-04-17T16:13:34.184Z,102673.00
2023-04-17T16:16:04.755Z,102670.31
2023-04-17T16:18:31.212Z,102668.97
2023-04-17T16:20:57.569Z,102676.06
2023-04-17T16:23:27.177Z,102683.16
2023-04-17T16:25:55.150Z,102680.34
2023-04-17T16:28:21.540Z,102688.28
2023-04-17T16:30:48.283Z,102690.81
2023-04-17T16:33:14.664Z,102697.94
2023-04-17T16:35:41.060Z,102683.84
2023-04-17T16:38:07.673Z,102690.88
2023-04-17T16:40:34.057Z,102693.41
2023-04-17T16:43:00.507Z,102692.69
2023-04-17T16:45:26.869Z,102695.38
2023-04-17T16:47:53.313Z,102691.91
2023-04-17T16:50:19.817Z,102698.91
2023-04-17T16:52:48.809Z,102698.09
2023-04-17T16:55:16.498Z,102696.19
2023-04-17T16:57:44.248Z,102702.31
2023-04-17T17:00:11.949Z,102702.28
2023-04-17T17:02:38.997Z,102705.78
2023-04-17T17:05:06.061Z,102712.06
2023-04-17T17:07:33.079Z,102704.25
2023-04-17T17:09:59.527Z,102714.75
2023-04-17T17:12:25.915Z,102716.53
2023-04-17T17:14:54.081Z,102710.44
2023-04-17T17:17:20.566Z,102709.59
2023-04-17T17:19:47.059Z,102717.47
2023-04-17T17:22:13.449Z,102712.31
2023-04-17T17:24:39.836Z,102721.94
2023-04-17T17:27:06.334Z,102717.59
2023-04-17T17:29:32.758Z,102728.09
2023-04-17T17:31:59.192Z,102723.78
2023-04-17T17:34:26.934Z,102734.28
2023-04-17T17:36:53.808Z,102735.16
2023-04-17T17:39:21.635Z,102733.41
2023-04-17T17:41:48.293Z,102729.88
2023-04-17T17:44:15.097Z,102732.50
2023-04-17T17:46:41.658Z,102723.72
2023-04-17T17:49:08.154Z,102720.19
2023-04-17T17:51:34.595Z,102727.16
2023-04-17T17:54:00.993Z,102721.91
2023-04-17T17:56:28.434Z,102728.94
2023-04-17T17:58:54.837Z,102729.81
2023-04-17T18:01:23.445Z,102736.81
2023-04-17T18:03:50.179Z,102735.97
2023-04-17T18:06:16.883Z,102737.75
2023-04-17T18:08:43.252Z,102736.00
2023-04-17T18:11:09.648Z,102740.38
2023-04-17T18:13:36.030Z,102738.63
2023-04-17T18:16:05.623Z,102741.22
2023-04-17T18:18:32.040Z,102743.91
2023-04-17T18:20:58.430Z,102745.63
2023-04-17T18:23:24.803Z,102739.50
2023-04-17T18:25:59.839Z,102737.78
2023-04-17T18:28:26.851Z,102736.03
2023-04-17T18:30:53.306Z,102743.00
2023-04-17T18:33:20.081Z,102741.28
2023-04-17T18:35:46.510Z,102752.63
2023-04-17T18:38:12.883Z,102758.72
2023-04-17T18:40:39.231Z,102755.13
2023-04-17T18:43:06.104Z,102761.31
2023-04-17T18:45:32.598Z,102761.34
2023-04-17T18:47:59.063Z,102760.44
2023-04-17T18:50:26.892Z,102757.81
2023-04-17T18:52:53.392Z,102762.22
2023-04-17T18:55:19.771Z,102760.50
2023-04-17T18:57:46.161Z,102770.97
2023-04-17T19:00:12.853Z,102765.72
2023-04-17T19:02:40.499Z,102770.97
2023-04-17T19:05:07.535Z,102768.25
2023-04-17T19:07:33.915Z,102775.28
2023-04-17T19:10:00.293Z,102772.56
2023-04-17T19:12:28.508Z,102782.19
2023-04-17T19:14:57.049Z,102775.19
2023-04-17T19:17:25.271Z,102773.47
2023-04-17T19:19:51.730Z,102774.38
2023-04-17T19:22:18.504Z,102787.41
2023-04-17T19:24:49.440Z,102776.06
2023-04-17T19:27:16.777Z,102776.06
2023-04-17T19:29:43.313Z,102785.69
2023-04-17T19:32:10.589Z,102786.56
2023-04-17T19:34:36.949Z,102785.66
2023-04-17T19:37:09.834Z,102789.13
2023-04-17T19:39:36.277Z,102786.53
2023-04-17T19:42:02.902Z,102790.88
2023-04-17T19:44:29.313Z,102785.56
2023-04-17T19:46:56.716Z,102796.84
2023-04-17T19:49:23.108Z,102791.69
2023-04-17T19:51:49.472Z,102796.94
2023-04-17T19:54:15.932Z,102795.16
2023-04-17T19:56:42.488Z,102807.34
2023-04-17T19:59:12.310Z,102811.63
2023-04-17T20:01:39.623Z,102809.94
2023-04-17T20:04:07.572Z,102811.59
2023-04-17T20:06:34.037Z,102810.81
2023-04-17T20:09:02.767Z,102813.50
2023-04-17T20:11:29.379Z,102804.81
2023-04-17T20:13:55.818Z,102804.84
2023-04-17T20:16:23.877Z,102804.84
2023-04-17T20:18:51.731Z,102809.25
2023-04-17T20:21:21.612Z,102810.97
2023-04-17T20:23:48.591Z,102802.25
2023-04-17T20:26:15.272Z,102813.59
2023-04-17T20:28:41.673Z,102807.50
2023-04-17T20:31:08.241Z,102806.66
2023-04-17T20:33:34.629Z,102811.88
2023-04-17T20:36:03.115Z,102811.00
2023-04-17T20:38:29.528Z,102809.25
2023-04-17T20:40:59.543Z,102811.88
2023-04-17T20:43:32.593Z,102814.50
2023-04-17T20:45:59.199Z,102811.00
2023-04-17T20:48:25.855Z,102811.88
2023-04-17T20:50:52.303Z,102820.59
2023-04-17T20:53:18.693Z,102809.22
2023-04-17T20:55:46.881Z,102810.97
2023-04-17T20:58:13.327Z,102816.19
2023-04-17T21:00:53.989Z,102817.97
2023-04-17T21:03:26.240Z,102818.84
2023-04-17T21:05:53.234Z,102811.84
2023-04-17T21:08:19.586Z,102810.97
2023-04-17T21:10:49.210Z,102811.81
2023-04-17T21:13:15.597Z,102816.19
2023-04-17T21:15:42.222Z,102817.06
2023-04-17T21:18:09.422Z,102809.25
2023-04-17T21:20:35.944Z,102807.47
2023-04-17T21:23:02.321Z,102812.72
2023-04-17T21:25:28.705Z,102812.72
2023-04-17T21:27:55.196Z,102811.84
2023-04-17T21:30:23.841Z,102809.22
2023-04-17T21:32:52.106Z,102814.47
2023-04-17T21:35:18.563Z,102813.59
2023-04-17T21:37:44.990Z,102813.56
2023-04-17T21:40:11.870Z,102825.81
2023-04-17T21:42:38.456Z,102823.16
2023-04-17T21:45:05.479Z,102819.69
2023-04-17T21:47:31.870Z,102824.91
2023-04-17T21:49:59.997Z,102831.00
2023-04-17T21:52:26.768Z,102824.88
2023-04-17T21:54:53.120Z,102836.22
2023-04-17T21:57:19.478Z,102832.72
2023-04-17T21:59:45.840Z,102831.84
2023-04-17T22:02:12.320Z,102837.94
2023-04-17T22:04:38.790Z,102839.66
2023-04-17T22:07:05.702Z,102847.53
2023-04-17T22:09:32.077Z,102847.53
2023-04-17T22:11:58.619Z,102844.06
2023-04-17T22:14:25.036Z,102844.91
2023-04-17T22:16:52.415Z,102855.38
2023-04-17T22:19:18.858Z,102848.38
2023-04-17T22:21:45.298Z,102850.13
2023-04-17T22:24:12.022Z,102848.38
2023-04-17T22:26:38.710Z,102843.13
2023-04-17T22:29:05.156Z,102851.84
2023-04-17T22:31:31.577Z,102850.94
2023-04-17T22:33:57.999Z,102855.28
2023-04-17T22:36:24.373Z,102858.78
2023-04-17T22:38:50.794Z,102864.00
2023-04-17T22:41:17.160Z,102858.75
2023-04-17T22:43:43.523Z,102864.00
2023-04-17T22:46:09.950Z,102855.28
2023-04-17T22:48:36.341Z,102854.41
2023-04-17T22:51:03.531Z,102857.88
2023-04-17T22:53:29.931Z,102856.97
2023-04-17T22:56:03.684Z,102856.06
2023-04-17T22:58:31.211Z,102856.91
2023-04-17T23:00:57.863Z,102859.53
2023-04-17T23:03:24.317Z,102858.66
2023-04-17T23:05:53.247Z,102855.16
2023-04-17T23:08:19.661Z,102860.34
2023-04-17T23:10:46.021Z,102856.88
2023-04-17T23:13:12.394Z,102865.53
2023-04-17T23:15:38.916Z,102855.88
2023-04-17T23:18:05.666Z,102858.47
2023-04-17T23:20:32.108Z,102857.56
2023-04-17T23:22:58.625Z,102861.91
2023-04-17T23:25:24.964Z,102863.59
2023-04-17T23:27:51.340Z,102860.09
2023-04-17T23:30:17.934Z,102867.06
2023-04-17T23:32:44.367Z,102864.44
2023-04-17T23:35:10.960Z,102864.38
2023-04-17T23:37:37.335Z,102867.00
2023-04-17T23:40:04.040Z,102865.25
2023-04-17T23:42:30.765Z,102869.56
2023-04-17T23:44:57.105Z,102878.25
2023-04-17T23:47:23.506Z,102869.53
2023-04-17T23:49:49.960Z,102866.91
2023-04-17T23:52:16.377Z,102870.38
2023-04-17T23:54:42.795Z,102876.44
2023-04-17T23:57:09.146Z,102864.19
2023-04-17T23:59:36.292Z,102867.66
